createdAt,value
2023-01-10T00:01:32.735Z,23.02
2023-01-10T00:04:00.172Z,18.73
2023-01-10T00:06:27.985Z,25.60
2023-01-10T00:08:57.367Z,26.52
2023-01-10T00:11:43.810Z,22.42
2023-01-10T00:14:12.274Z,28.95
2023-01-10T00:16:40.755Z,22.45
2023-01-10T00:19:10.549Z,22.10
2023-01-10T00:21:39.722Z,24.55
2023-01-10T00:24:19.793Z,24.45
2023-01-10T00:26:51.280Z,28.20
2023-01-10T00:29:20.911Z,24.60
2023-01-10T00:31:48.952Z,23.42
2023-01-10T00:34:16.952Z,22.40
2023-01-10T00:36:47.339Z,22.33
2023-01-10T00:39:18.207Z,21.73
2023-01-10T00:42:04.465Z,21.38
2023-01-10T00:44:32.274Z,24.27
2023-01-10T00:47:00.033Z,22.48
2023-01-10T00:49:27.895Z,22.77
2023-01-10T00:51:58.331Z,24.08
2023-01-10T00:54:26.549Z,21.30
2023-01-10T00:56:54.361Z,18.65
2023-01-10T00:59:23.152Z,15.13
2023-01-10T01:01:51.861Z,21.08
2023-01-10T01:04:19.591Z,19.00
2023-01-10T01:06:47.824Z,19.08
2023-01-10T01:09:15.732Z,20.48
2023-01-10T01:11:43.382Z,22.02
2023-01-10T01:14:10.960Z,20.85
2023-01-10T01:16:38.415Z,21.08
2023-01-10T01:19:05.961Z,22.75
2023-01-10T01:21:33.479Z,20.58
2023-01-10T01:24:00.944Z,19.90
2023-01-10T01:26:28.777Z,18.77
2023-01-10T01:28:56.968Z,21.58
2023-01-10T01:31:24.891Z,18.75
2023-01-10T01:33:52.711Z,21.35
2023-01-10T01:36:20.172Z,19.30
2023-01-10T01:38:47.932Z,25.40
2023-01-10T01:41:34.102Z,24.05
2023-01-10T01:44:07.986Z,21.58
2023-01-10T01:46:39.226Z,19.98
2023-01-10T01:49:15.064Z,22.20
2023-01-10T01:51:45.904Z,19.60
2023-01-10T01:54:14.298Z,19.60
2023-01-10T01:56:51.885Z,18.67
2023-01-10T01:59:26.421Z,22.10
2023-01-10T02:02:01.863Z,21.20
2023-01-10T02:04:40.877Z,22.92
2023-01-10T02:09:43.711Z,21.23
2023-01-10T02:12:14.028Z,23.40
2023-01-10T02:14:44.991Z,20.65
2023-01-10T02:17:13.203Z,19.80
2023-01-10T02:20:01.710Z,21.05
2023-01-10T02:22:35.392Z,22.15
2023-01-10T02:25:41.451Z,18.80
2023-01-10T02:28:20.376Z,19.52
2023-01-10T02:33:29.268Z,19.95
2023-01-10T02:36:29.045Z,21.25
2023-01-10T02:39:17.102Z,21.13
2023-01-10T02:42:04.189Z,19.35
2023-01-10T02:44:51.114Z,20.15
2023-01-10T02:47:19.107Z,21.52
2023-01-10T02:49:49.564Z,18.20
2023-01-10T02:52:29.251Z,19.67
2023-01-10T02:55:01.373Z,19.35
2023-01-10T02:57:47.631Z,21.58
2023-01-10T03:00:42.192Z,21.17
2023-01-10T03:03:47.062Z,18.70
2023-01-10T03:06:36.723Z,21.08
2023-01-10T03:09:16.622Z,19.20
2023-01-10T03:11:47.038Z,17.58
2023-01-10T03:14:17.734Z,19.20
2023-01-10T03:16:51.119Z,21.58
2023-01-10T03:19:22.886Z,17.73
2023-01-10T03:21:57.034Z,18.35
2023-01-10T03:24:31.469Z,19.20
2023-01-10T03:27:08.144Z,18.63
2023-01-10T03:29:48.588Z,20.90
2023-01-10T03:32:19.429Z,19.15
2023-01-10T03:34:47.387Z,17.08
2023-01-10T03:37:26.782Z,14.50
2023-01-10T03:40:30.656Z,19.15
2023-01-10T03:43:24.235Z,22.23
2023-01-10T03:45:54.273Z,23.55
2023-01-10T03:48:24.303Z,20.58
2023-01-10T03:50:52.377Z,22.55
2023-01-10T03:53:20.036Z,14.40
2023-01-10T03:55:47.900Z,17.03
2023-01-10T03:58:17.435Z,19.05
2023-01-10T04:00:45.194Z,20.15
2023-01-10T04:03:12.966Z,16.48
2023-01-10T04:05:41.228Z,22.77
2023-01-10T04:08:09.087Z,21.65
2023-01-10T04:10:37.850Z,18.95
2023-01-10T04:13:06.174Z,18.17
2023-01-10T04:15:33.651Z,15.03
2023-01-10T04:18:01.133Z,20.88
2023-01-10T04:20:28.716Z,21.33
2023-01-10T04:22:56.317Z,22.20
2023-01-10T04:25:24.473Z,20.48
2023-01-10T04:27:52.820Z,14.65
2023-01-10T04:30:20.555Z,18.92
2023-01-10T04:32:48.164Z,18.77
2023-01-10T04:35:15.676Z,19.00
2023-01-10T04:37:43.447Z,22.80
2023-01-10T04:40:11.542Z,20.10
2023-01-10T04:42:39.086Z,18.83
2023-01-10T04:45:07.194Z,18.70
2023-01-10T04:47:34.605Z,14.57
2023-01-10T04:50:02.178Z,18.33
2023-01-10T04:52:29.664Z,17.08
2023-01-10T04:54:57.410Z,18.67
2023-01-10T04:57:24.920Z,16.38
2023-01-10T04:59:54.161Z,18.80
2023-01-10T05:02:22.211Z,18.58
2023-01-10T05:04:49.731Z,21.00
2023-01-10T05:07:17.515Z,22.45
2023-01-10T05:09:45.295Z,17.50
2023-01-10T05:12:13.061Z,25.38
2023-01-10T05:14:40.463Z,18.60
2023-01-10T05:17:07.919Z,17.02
2023-01-10T05:19:35.717Z,18.10
2023-01-10T05:22:03.315Z,18.48
2023-01-10T05:24:31.059Z,16.70
2023-01-10T05:26:58.732Z,17.58
2023-01-10T05:29:26.279Z,19.25
2023-01-10T05:31:54.144Z,16.42
2023-01-10T05:34:21.714Z,18.00
2023-01-10T05:36:49.223Z,21.60
2023-01-10T05:39:17.044Z,17.13
2023-01-10T05:41:44.851Z,16.00
2023-01-10T05:44:14.127Z,17.92
2023-01-10T05:46:42.365Z,19.27
2023-01-10T05:49:09.937Z,19.80
2023-01-10T05:51:37.400Z,17.80
2023-01-10T05:54:04.950Z,15.82
2023-01-10T05:56:32.396Z,16.58
2023-01-10T05:59:17.199Z,15.20
2023-01-10T06:01:48.538Z,16.55
2023-01-10T06:04:16.175Z,15.65
2023-01-10T06:06:43.609Z,19.48
2023-01-10T06:09:11.184Z,17.77
2023-01-10T06:11:39.032Z,17.40
2023-01-10T06:14:07.833Z,15.38
2023-01-10T06:16:35.348Z,19.40
2023-01-10T06:19:02.836Z,16.50
2023-01-10T06:21:30.355Z,17.88
2023-01-10T06:23:58.224Z,17.05
2023-01-10T06:26:25.699Z,16.88
2023-01-10T06:28:53.523Z,20.08
2023-01-10T06:31:22.579Z,19.85
2023-01-10T06:33:51.315Z,13.60
2023-01-10T06:36:18.838Z,15.90
2023-01-10T06:38:46.812Z,16.30
2023-01-10T06:41:14.320Z,17.33
2023-01-10T06:43:46.263Z,17.80
2023-01-10T06:46:16.668Z,19.42
2023-01-10T06:48:45.712Z,17.42
2023-01-10T06:51:14.926Z,18.20
2023-01-10T06:53:43.083Z,15.90
2023-01-10T06:56:11.356Z,17.30
2023-01-10T06:58:39.053Z,15.48
2023-01-10T07:01:12.961Z,16.75
2023-01-10T07:03:41.649Z,15.15
2023-01-10T07:06:10.327Z,11.98
2023-01-10T07:08:39.825Z,16.65
2023-01-10T07:11:08.977Z,18.25
2023-01-10T07:16:10.381Z,17.05
2023-01-10T07:18:40.138Z,15.75
2023-01-10T07:21:08.395Z,17.05
2023-01-10T07:23:36.280Z,14.63
2023-01-10T07:26:05.892Z,14.93
2023-01-10T07:28:36.483Z,14.25
2023-01-10T07:31:06.046Z,15.18
2023-01-10T07:33:33.895Z,19.65
2023-01-10T07:36:02.044Z,17.80
2023-01-10T07:38:29.866Z,18.25
2023-01-10T07:40:57.716Z,16.35
2023-01-10T07:43:26.058Z,17.67
2023-01-10T07:45:53.909Z,18.85
2023-01-10T07:48:22.098Z,18.55
2023-01-10T07:50:49.536Z,16.67
2023-01-10T07:53:17.702Z,17.17
2023-01-10T07:55:46.179Z,17.10
2023-01-10T07:58:14.560Z,15.25
2023-01-10T08:00:42.423Z,15.95
2023-01-10T08:03:13.454Z,16.88
2023-01-10T08:05:41.057Z,18.85
2023-01-10T08:08:10.576Z,20.08
2023-01-10T08:10:39.987Z,18.40
2023-01-10T08:13:18.339Z,19.08
2023-01-10T08:18:22.169Z,18.23
2023-01-10T08:20:51.442Z,17.55
2023-01-10T08:23:19.798Z,18.42
2023-01-10T08:25:47.563Z,20.10
2023-01-10T08:28:15.552Z,18.38
2023-01-10T08:30:43.733Z,22.88
2023-01-10T08:33:12.412Z,23.02
2023-01-10T08:35:42.437Z,17.67
2023-01-10T08:38:11.346Z,19.85
2023-01-10T08:40:39.174Z,18.35
2023-01-10T08:43:09.983Z,12.50
2023-01-10T08:45:38.509Z,19.60
2023-01-10T08:48:06.954Z,20.00
2023-01-10T08:50:34.985Z,20.15
2023-01-10T08:53:02.647Z,22.05
2023-01-10T08:55:31.352Z,17.08
2023-01-10T08:58:00.837Z,18.77
2023-01-10T09:00:29.408Z,21.27
2023-01-10T09:02:57.574Z,22.55
2023-01-10T09:05:27.781Z,20.83
2023-01-10T09:08:00.853Z,19.83
2023-01-10T09:10:30.110Z,17.90
2023-01-10T09:13:01.594Z,18.90
2023-01-10T09:15:35.306Z,18.83
2023-01-10T09:18:06.025Z,15.00
2023-01-10T09:20:36.499Z,19.52
2023-01-10T09:23:09.937Z,15.68
2023-01-10T09:25:38.198Z,18.45
2023-01-10T09:28:06.732Z,15.30
2023-01-10T09:30:34.716Z,18.77
2023-01-10T09:33:03.571Z,20.70
2023-01-10T09:38:01.421Z,18.45
2023-01-10T09:40:38.182Z,20.73
2023-01-10T09:43:16.837Z,23.98
2023-01-10T09:48:33.890Z,16.92
2023-01-10T09:51:04.454Z,17.73
2023-01-10T09:53:34.633Z,16.45
2023-01-10T09:56:02.437Z,17.05
2023-01-10T09:58:34.507Z,18.02
2023-01-10T10:01:11.538Z,16.77
2023-01-10T10:04:18.996Z,16.75
2023-01-10T10:06:50.237Z,20.98
2023-01-10T10:09:23.739Z,15.90
2023-01-10T10:12:02.189Z,18.02
2023-01-10T10:14:45.754Z,21.02
2023-01-10T10:17:19.182Z,21.42
2023-01-10T10:20:23.938Z,18.75
2023-01-10T10:23:03.881Z,19.17
2023-01-10T10:25:46.348Z,25.33
2023-01-10T10:28:16.981Z,18.90
2023-01-10T10:30:44.664Z,17.50
2023-01-10T10:33:29.123Z,19.88
2023-01-10T10:36:03.364Z,20.85
2023-01-10T10:38:37.511Z,20.20
2023-01-10T10:41:15.669Z,24.80
2023-01-10T10:43:47.916Z,14.40
2023-01-10T10:46:20.009Z,20.52
2023-01-10T10:49:01.254Z,19.95
2023-01-10T10:51:41.686Z,23.35
2023-01-10T10:54:13.957Z,20.70
2023-01-10T10:56:41.848Z,22.52
2023-01-10T10:59:12.407Z,20.95
2023-01-10T11:01:43.580Z,21.75
2023-01-10T11:04:15.669Z,25.50
2023-01-10T11:06:49.028Z,22.63
2023-01-10T11:09:28.382Z,19.90
2023-01-10T11:11:56.962Z,18.83
2023-01-10T11:14:51.648Z,24.10
2023-01-10T11:17:24.214Z,20.67
2023-01-10T11:19:58.855Z,19.75
2023-01-10T11:22:33.841Z,22.08
2023-01-10T11:25:03.192Z,25.75
2023-01-10T11:27:48.629Z,23.00
2023-01-10T11:30:28.309Z,25.75
2023-01-10T11:33:05.952Z,25.25
2023-01-10T11:35:37.108Z,24.50
2023-01-10T11:38:22.136Z,24.15
2023-01-10T11:41:00.609Z,23.83
2023-01-10T11:43:29.663Z,18.85
2023-01-10T11:46:15.646Z,23.92
2023-01-10T11:49:08.640Z,25.20
2023-01-10T11:51:45.876Z,30.60
2023-01-10T11:54:26.019Z,24.42
2023-01-10T11:57:15.062Z,24.05
2023-01-10T12:00:02.078Z,22.77
2023-01-10T12:02:35.703Z,18.90
2023-01-10T12:05:09.179Z,26.05
2023-01-10T12:07:56.479Z,26.98
2023-01-10T12:10:27.284Z,25.92
2023-01-10T12:12:58.235Z,27.95
2023-01-10T12:15:31.207Z,26.10
2023-01-10T12:18:01.347Z,39.10
2023-01-10T12:20:40.520Z,36.33
2023-01-10T12:23:17.916Z,33.90
2023-01-10T12:25:46.899Z,35.03
2023-01-10T12:28:28.762Z,40.15
2023-01-10T12:31:00.066Z,37.95
2023-01-10T12:33:35.763Z,46.85
2023-01-10T12:36:24.765Z,42.03
2023-01-10T12:39:03.808Z,27.15
2023-01-10T12:44:33.172Z,31.40
2023-01-10T12:47:13.192Z,30.90
2023-01-10T12:50:13.586Z,31.80
2023-01-10T12:52:52.486Z,28.00
2023-01-10T12:55:23.442Z,29.33
2023-01-10T12:57:54.606Z,36.45
2023-01-10T13:00:27.125Z,34.83
2023-01-10T13:02:59.685Z,35.92
2023-01-10T13:05:30.253Z,29.00
2023-01-10T13:08:07.303Z,28.13
2023-01-10T13:10:39.798Z,29.95
2023-01-10T13:13:52.441Z,30.65
2023-01-10T13:16:35.417Z,27.65
2023-01-10T13:19:12.478Z,27.67
2023-01-10T13:21:42.094Z,35.17
2023-01-10T13:24:15.564Z,33.55
2023-01-10T13:26:58.970Z,26.85
2023-01-10T13:29:38.576Z,26.20
2023-01-10T13:32:29.670Z,26.13
2023-01-10T13:35:13.606Z,24.73
2023-01-10T13:37:44.415Z,26.95
2023-01-10T13:40:27.938Z,29.85
2023-01-10T13:43:36.731Z,33.70
2023-01-10T13:46:19.342Z,28.50
2023-01-10T13:48:50.036Z,27.35
2023-01-10T13:51:20.197Z,27.65
2023-01-10T13:53:55.296Z,28.80
2023-01-10T13:56:38.493Z,29.05
2023-01-10T13:59:31.408Z,26.88
2023-01-10T14:02:20.007Z,25.27
2023-01-10T14:04:54.255Z,27.30
2023-01-10T14:07:25.888Z,29.08
2023-01-10T14:10:00.327Z,29.17
2023-01-10T14:12:31.058Z,38.30
2023-01-10T14:15:07.460Z,31.55
2023-01-10T14:17:37.421Z,26.25
2023-01-10T14:20:10.848Z,30.77
2023-01-10T14:22:41.197Z,34.45
2023-01-10T14:25:18.949Z,35.15
2023-01-10T14:27:50.763Z,36.55
2023-01-10T14:30:26.084Z,31.00
2023-01-10T14:32:57.957Z,24.70
2023-01-10T14:35:34.223Z,33.17
2023-01-10T14:38:03.389Z,26.92
2023-01-10T14:40:48.222Z,27.83
2023-01-10T14:43:18.952Z,30.10
2023-01-10T14:45:54.048Z,25.88
2023-01-10T14:48:27.447Z,26.77
2023-01-10T14:51:23.844Z,29.63
2023-01-10T14:54:04.752Z,31.75
2023-01-10T14:56:44.285Z,22.35
2023-01-10T14:59:34.175Z,30.08
2023-01-10T15:02:15.637Z,27.95
2023-01-10T15:04:53.808Z,28.33
2023-01-10T15:07:23.831Z,28.40
2023-01-10T15:09:53.728Z,27.80
2023-01-10T15:12:23.440Z,28.48
2023-01-10T15:15:23.625Z,30.40
2023-01-10T15:17:51.689Z,30.23
2023-01-10T15:20:21.689Z,36.22
2023-01-10T15:22:57.686Z,30.40
2023-01-10T15:25:38.195Z,30.70
2023-01-10T15:28:17.964Z,35.28
2023-01-10T15:30:46.548Z,35.55
2023-01-10T15:33:17.367Z,34.60
2023-01-10T15:35:45.438Z,31.02
2023-01-10T15:38:16.578Z,32.50
2023-01-10T15:40:44.553Z,31.00
2023-01-10T15:43:18.589Z,29.70
2023-01-10T15:45:47.669Z,27.20
2023-01-10T15:48:34.326Z,27.67
2023-01-10T15:51:03.873Z,32.08
2023-01-10T15:54:00.587Z,51.53
2023-01-10T15:56:51.389Z,30.15
2023-01-10T15:59:24.752Z,36.75
2023-01-10T16:02:17.565Z,29.15
2023-01-10T16:04:46.426Z,39.55
2023-01-10T16:07:27.826Z,34.25
2023-01-10T16:10:01.104Z,34.88
2023-01-10T16:12:58.934Z,32.17
2023-01-10T16:15:29.346Z,33.08
2023-01-10T16:17:59.921Z,33.97
2023-01-10T16:20:32.364Z,32.35
2023-01-10T16:23:01.107Z,39.15
2023-01-10T16:25:37.543Z,31.08
2023-01-10T16:28:06.405Z,26.35
2023-01-10T16:30:35.316Z,26.25
2023-01-10T16:33:11.806Z,24.17
2023-01-10T16:35:39.586Z,27.90
2023-01-10T16:38:09.834Z,28.67
2023-01-10T16:40:40.777Z,22.17
2023-01-10T16:43:18.861Z,23.48
2023-01-10T16:45:47.940Z,25.63
2023-01-10T16:48:17.186Z,23.77
2023-01-10T16:50:47.442Z,25.02
2023-01-10T16:53:17.224Z,32.50
2023-01-10T16:55:50.218Z,25.40
2023-01-10T16:58:19.185Z,32.03
2023-01-10T17:00:53.079Z,30.35
2023-01-10T17:03:23.616Z,28.95
2023-01-10T17:05:51.462Z,32.42
2023-01-10T17:08:23.709Z,28.77
2023-01-10T17:10:56.233Z,25.02
2023-01-10T17:13:27.322Z,29.75
2023-01-10T17:15:55.053Z,32.58
2023-01-10T17:18:25.954Z,25.23
2023-01-10T17:20:54.310Z,25.70
2023-01-10T17:23:22.092Z,25.30
2023-01-10T17:25:50.705Z,25.42
2023-01-10T17:28:19.552Z,31.90
2023-01-10T17:30:47.255Z,32.13
2023-01-10T17:33:15.089Z,35.28
2023-01-10T17:35:44.892Z,29.35
2023-01-10T17:38:16.296Z,29.98
2023-01-10T17:40:46.083Z,28.02
2023-01-10T17:43:15.733Z,28.58
2023-01-10T17:45:45.639Z,34.28
2023-01-10T17:48:16.215Z,30.10
2023-01-10T17:50:46.018Z,29.45
2023-01-10T17:53:14.015Z,30.08
2023-01-10T17:55:46.017Z,25.33
2023-01-10T17:58:14.959Z,29.83
2023-01-10T18:00:43.244Z,30.17
2023-01-10T18:03:11.307Z,22.58
2023-01-10T18:05:39.984Z,23.70
2023-01-10T18:08:08.110Z,22.75
2023-01-10T18:10:35.932Z,34.30
2023-01-10T18:13:03.827Z,29.13
2023-01-10T18:15:31.606Z,31.77
2023-01-10T18:17:59.362Z,63.50
2023-01-10T18:20:27.745Z,41.22
2023-01-10T18:23:13.854Z,25.75
2023-01-10T18:25:41.570Z,30.88
2023-01-10T18:28:09.102Z,31.77
2023-01-10T18:30:36.950Z,37.35
2023-01-10T18:33:06.122Z,37.47
2023-01-10T18:35:33.770Z,30.20
2023-01-10T18:38:01.568Z,33.95
2023-01-10T18:40:29.449Z,34.78
2023-01-10T18:42:58.488Z,32.15
2023-01-10T18:45:27.599Z,27.40
2023-01-10T18:47:57.599Z,32.80
2023-01-10T18:50:26.424Z,24.70
2023-01-10T18:52:53.997Z,21.75
2023-01-10T18:55:21.950Z,26.37
2023-01-10T18:57:49.663Z,24.58
2023-01-10T19:00:17.771Z,24.33
2023-01-10T19:02:46.661Z,22.40
2023-01-10T19:07:43.362Z,23.35
2023-01-10T19:10:11.497Z,24.33
2023-01-10T19:12:41.475Z,21.83
2023-01-10T19:15:09.759Z,25.73
2023-01-10T19:17:37.641Z,25.85
2023-01-10T19:20:06.162Z,23.38
2023-01-10T19:22:33.835Z,19.10
2023-01-10T19:25:01.608Z,22.20
2023-01-10T19:27:29.798Z,23.13
2023-01-10T19:29:57.565Z,25.27
2023-01-10T19:32:25.515Z,29.98
2023-01-10T19:34:53.279Z,25.08
2023-01-10T19:37:21.556Z,24.90
2023-01-10T19:39:49.364Z,27.10
2023-01-10T19:44:45.896Z,23.88
2023-01-10T19:47:13.352Z,27.30
2023-01-10T19:49:42.089Z,30.33
2023-01-10T19:52:10.666Z,34.85
2023-01-10T19:54:39.150Z,31.08
2023-01-10T19:57:08.325Z,24.30
2023-01-10T19:59:36.575Z,26.38
2023-01-10T20:02:04.401Z,25.50
2023-01-10T20:04:32.309Z,23.42
2023-01-10T20:07:00.218Z,22.10
2023-01-10T20:09:28.236Z,27.30
2023-01-10T20:11:56.211Z,25.83
2023-01-10T20:14:25.016Z,19.15
2023-01-10T20:16:53.230Z,17.85
2023-01-10T20:19:21.765Z,16.50
2023-01-10T20:21:49.872Z,23.10
2023-01-10T20:24:21.048Z,24.80
2023-01-10T20:26:50.003Z,23.80
2023-01-10T20:29:18.787Z,23.35
2023-01-10T20:31:49.707Z,21.45
2023-01-10T20:34:17.769Z,20.45
2023-01-10T20:36:47.428Z,21.25
2023-01-10T20:39:16.816Z,24.05
2023-01-10T20:41:44.822Z,21.40
2023-01-10T20:44:12.470Z,24.58
2023-01-10T20:46:40.715Z,24.73
2023-01-10T20:49:08.349Z,26.35
2023-01-10T20:51:36.368Z,34.08
2023-01-10T20:54:05.927Z,26.00
2023-01-10T20:56:35.363Z,24.65
2023-01-10T20:59:03.798Z,26.60
2023-01-10T21:01:34.917Z,27.30
2023-01-10T21:04:05.663Z,22.08
2023-01-10T21:06:34.188Z,26.75
2023-01-10T21:09:02.886Z,24.35
2023-01-10T21:11:30.394Z,24.60
2023-01-10T21:13:57.932Z,22.55
2023-01-10T21:16:26.099Z,26.25
2023-01-10T21:18:53.978Z,21.50
2023-01-10T21:21:24.932Z,23.98
2023-01-10T21:23:55.245Z,22.63
2023-01-10T21:26:23.195Z,21.73
2023-01-10T21:28:51.061Z,24.00
2023-01-10T21:31:21.063Z,24.67
2023-01-10T21:33:49.701Z,26.17
2023-01-10T21:36:18.003Z,18.87
2023-01-10T21:38:45.671Z,22.45
2023-01-10T21:41:35.539Z,25.92
2023-01-10T21:44:05.159Z,19.30
2023-01-10T21:46:32.664Z,21.42
2023-01-10T21:49:05.090Z,22.90
2023-01-10T21:51:32.901Z,21.25
2023-01-10T21:54:00.474Z,19.92
2023-01-10T21:56:28.616Z,25.48
2023-01-10T21:58:56.461Z,15.18
2023-01-10T22:01:24.215Z,23.42
2023-01-10T22:03:52.220Z,23.38
2023-01-10T22:06:20.072Z,19.80
2023-01-10T22:08:47.925Z,21.35
2023-01-10T22:11:15.365Z,22.98
2023-01-10T22:13:42.908Z,21.98
2023-01-10T22:16:11.036Z,21.80
2023-01-10T22:18:38.607Z,21.23
2023-01-10T22:21:06.583Z,21.50
2023-01-10T22:23:34.789Z,21.50
2023-01-10T22:26:06.011Z,19.87
2023-01-10T22:28:33.896Z,18.50
2023-01-10T22:31:02.406Z,18.27
2023-01-10T22:33:34.207Z,17.00
2023-01-10T22:36:13.327Z,19.02
2023-01-10T22:38:41.743Z,23.10
2023-01-10T22:41:17.154Z,14.50
2023-01-10T22:43:45.174Z,21.13
2023-01-10T22:46:16.645Z,20.23
2023-01-10T22:48:44.777Z,20.85
2023-01-10T22:51:14.345Z,18.48
2023-01-10T22:53:42.748Z,19.30
2023-01-10T22:56:11.361Z,21.98
2023-01-10T22:58:39.613Z,19.00
2023-01-10T23:01:07.421Z,18.98
2023-01-10T23:03:35.469Z,17.60
2023-01-10T23:06:03.322Z,19.67
2023-01-10T23:08:31.525Z,16.52
2023-01-10T23:10:59.515Z,14.55
2023-01-10T23:13:27.513Z,20.88
2023-01-10T23:16:05.764Z,21.73
2023-01-10T23:18:34.059Z,19.52
2023-01-10T23:21:02.213Z,33.13
2023-01-10T23:23:30.363Z,22.83
2023-01-10T23:26:06.861Z,14.90
2023-01-10T23:28:40.341Z,18.65
2023-01-10T23:31:08.033Z,22.67
2023-01-10T23:33:36.122Z,25.58
2023-01-10T23:36:04.516Z,13.82
2023-01-10T23:38:32.420Z,13.90
2023-01-10T23:41:00.330Z,16.27
2023-01-10T23:43:28.128Z,18.20
2023-01-10T23:45:55.597Z,15.77
2023-01-10T23:48:23.357Z,17.70
2023-01-10T23:50:51.761Z,15.00
2023-01-10T23:53:19.711Z,18.00
2023-01-10T23:55:47.513Z,16.92
2023-01-10T23:58:17.030Z,19.25
